Terminal Aerodrome Forecast
Issued by NWS Mobile, AL

Home | Current Version | Previous Version | Text Only | Print | Product List | Glossary On
Versions: 1 2 3 4 5 6 7 8 9 10 11 12 13 14 15 16 17 18 19 20 21 22 23 24 25 26 27 28 29 30 31 32 33 34 35 36 37 38 39 40 41 42 43 44 45 46
730
FTUS44 KMOB 220620 AAA
TAFMOB
TAF AMD
KMOB 220620Z 2206/2306 02004KT P6SM BKN003 BKN007 OVC013
      TEMPO 2209/2213 1/4SM FG VV003
     FM221600 35007KT P6SM BKN012
     FM221900 35005KT P6SM BKN020
     FM230300 01006KT P6SM BKN010=

USA.gov is the U.S. government's official web portal to all federal, state and local government web resources and services.